Washington, GA

9:25 PM EDT on March 28, 2015 (GMT -0400)
Washington-Wilkes County | | Change Station
CLOSE
Current Station
Airport
Location: Washington,
Elevation: 646 ft
Nearby Weather Stations
Active Advisory: Freeze Warning

Elev 646 ft 33.78 °N, 82.82 °W | Updated 10 minutes ago

Clear
Clear
46 °F
Feels Like 44 °F
N
5
Wind Variable Wind from WNW

Today
High -- | Low -- °F
--% Chance of Precip.
Yesterday
High -- | Low -- °F
Precip. -- in
7:24 AM 7:48 PM
Waxing Gibbous, 67% visible
Pressure 30.18 in
Visibility 10.0 miles
Clouds Clear
Windchill 44 °F
Dew Point 30 °F
Humidity 53%
Rainfall 0.00 in
Snow Depth Not available.
UV 0 out of 12
Pollen 9.80 out of 12
Air Quality Not available.
Flu Activity Not available.
METAR KIIY 290115Z AUTO 29004KT 10SM CLR 08/M01 A3018 RMK AO2

More Conditions Fewer Conditions

Pressure 30.18 in
Visibility 10.0 miles
Clouds Clear
Windchill 44 °F
Dew Point 30 °F
Humidity 53%
Rainfall 0.00 in
Snow Depth Not available.
UV 0 out of 12
Pollen 9.80 out of 12
Air Quality Not available.
Flu Activity Not available.
METAR KIIY 290115Z AUTO 29004KT 10SM CLR 08/M01 A3018 RMK AO2

More Conditions Fewer Conditions

10-Day Weather Forecast

Almanac

Astronomy

Mar. 28, 2015 Rise Set
Actual Time
Civil Twilight
Nautical Twilight
Astronomical Twilight
Moon
Length of Visible Light
Length of Day
Tomorrow will be .
, % of the Moon is Illuminated

Today's Extremes

State Highs State Lows

Community

WunderPhotos

Upload Photos

1,809,146 photos uploaded!

WunderBlogs® & News

Nearby

Air Quality

  Air Quality AQ Index Pollutant
Not available.

Snow Depth

Station Depth Elevation

Earthquake Activity

City Distance Mag. Time & Date
Minimum magnitude displayed is 2.5.

Coastal Water Temperatures

Place Temperature

Stations

Nearby Weather Stations

Station Location Temp. Windchill Dew Point Humidity Wind Precip. Elev Updated Type
                   
Freeze Warning
Statement as of 3:20 PM EDT on March 28, 2015

... Freeze warning remains in effect from midnight tonight to
10 am EDT Sunday...

* locations... north of a line from Hamilton to Macon and
Louisville.

* Temperatures... mid 20s to lower 30s... except low to mid 20s in
the mountains.

* Timing... midnight to 8 am Sunday morning.

* Impacts... freezing temperatures could damage tender vegetation.

Precautionary/preparedness actions...

A freeze warning means freezing temperatures are forecast to
threaten outdoor plants. Those with agricultural interests in the
warned area are advised to harvest or protect tender vegetation.